Time;durP1;ratioP1;P1;durP2;ratioP2;P2;SDS_P1;SDS_P2;PMS_P1;PMS_P2;Temp;Humidity;BMP_temperature;BMP_pressure;BME280_temperature;BME280_humidity;BME280_pressure;Samples;Min_cycle;Max_cycle;Signal;HPM_P1;HPM_P2
2023/03/24 00:01:26;;;;;;;61.85;8.82;;;;;;;;;;4874248;29;20051;-48
2023/03/24 00:03:52;;;;;;;111.45;11.25;;;;;;;;;;4875748;29;20137;-66
2023/03/24 00:06:21;;;;;;;77.05;9.23;;;;;;;;;;4873047;29;20089;-66
2023/03/24 00:08:48;;;;;;;55.85;7.85;;;;;;;;;;4875795;29;20130;-66
2023/03/24 00:11:17;;;;;;;53.60;7.60;;;;;;;;;;4876091;29;20060;-66
2023/03/24 00:13:45;;;;;;;93.32;10.15;;;;;;;;;;4874873;29;20562;-66
2023/03/24 00:16:13;;;;;;;51.17;7.35;;;;;;;;;;4875187;29;20069;-66
2023/03/24 00:18:39;;;;;;;48.20;7.35;;;;;;;;;;4875329;29;20041;-66
2023/03/24 00:21:07;;;;;;;82.47;9.57;;;;;;;;;;4874752;29;20041;-66
2023/03/24 00:23:34;;;;;;;66.85;8.60;;;;;;;;;;4874771;29;20033;-66
2023/03/24 00:26:01;;;;;;;54.80;7.70;;;;;;;;;;4875788;29;20073;-66
2023/03/24 00:28:30;;;;;;;62.17;7.88;;;;;;;;;;4874301;29;20044;-66
2023/03/24 00:30:56;;;;;;;40.75;6.97;;;;;;;;;;4874965;29;20657;-66
2023/03/24 00:33:24;;;;;;;44.08;7.25;;;;;;;;;;4874934;29;20044;-66
2023/03/24 00:35:50;;;;;;;90.45;10.35;;;;;;;;;;4874286;29;20045;-66
2023/03/24 00:38:18;;;;;;;43.75;6.63;;;;;;;;;;4876086;29;20105;-66
2023/03/24 00:40:47;;;;;;;39.22;6.47;;;;;;;;;;4874888;29;20049;-66
2023/03/24 00:43:14;;;;;;;67.00;8.13;;;;;;;;;;4874432;29;20414;-66
2023/03/24 00:45:44;;;;;;;61.75;8.90;;;;;;;;;;4874598;29;20068;-66
2023/03/24 00:48:12;;;;;;;55.60;7.85;;;;;;;;;;4889073;29;20562;-66
2023/03/24 00:50:38;;;;;;;86.75;9.20;;;;;;;;;;4874391;29;20049;-63
2023/03/24 00:53:05;;;;;;;47.03;6.38;;;;;;;;;;4874727;29;20057;-64
2023/03/24 00:55:32;;;;;;;48.90;6.78;;;;;;;;;;4873710;29;20048;-64
2023/03/24 00:58:00;;;;;;;75.57;8.25;;;;;;;;;;4873483;29;20037;-65
2023/03/24 01:00:26;;;;;;;38.58;6.53;;;;;;;;;;4874341;29;20407;-66
2023/03/24 01:02:54;;;;;;;50.15;7.70;;;;;;;;;;4873602;29;20053;-66
2023/03/24 01:05:26;;;;;;;76.88;8.70;;;;;;;;;;4887551;29;20049;-66
2023/03/24 01:08:01;;;;;;;51.70;6.95;;;;;;;;;;4873910;29;20407;-66
2023/03/24 01:10:30;;;;;;;71.63;8.20;;;;;;;;;;4887258;29;20536;-66
2023/03/24 01:12:58;;;;;;;58.95;8.23;;;;;;;;;;4869403;29;20124;-47
2023/03/24 01:15:28;;;;;;;124.03;11.98;;;;;;;;;;4885964;29;20521;-49
2023/03/24 01:17:55;;;;;;;82.90;9.35;;;;;;;;;;4887989;29;20151;-47
2023/03/24 01:20:22;;;;;;;61.25;8.77;;;;;;;;;;4873849;29;20059;-49
2023/03/24 01:22:49;;;;;;;60.30;8.27;;;;;;;;;;4874219;29;20127;-47
2023/03/24 01:25:17;;;;;;;84.65;10.30;;;;;;;;;;4874462;29;20136;-49
2023/03/24 01:27:44;;;;;;;57.63;8.55;;;;;;;;;;4872816;29;20076;-51
2023/03/24 01:30:22;;;;;;;51.20;8.85;;;;;;;;;;4884140;29;20502;-48
2023/03/24 01:32:49;;;;;;;80.15;10.05;;;;;;;;;;4873194;29;20056;-47
2023/03/24 01:35:16;;;;;;;64.63;9.02;;;;;;;;;;4904193;29;20049;-48
2023/03/24 01:37:42;;;;;;;54.95;8.27;;;;;;;;;;4872979;29;20700;-51
2023/03/24 01:40:13;;;;;;;74.70;9.52;;;;;;;;;;4887194;29;20049;-47
2023/03/24 01:42:39;;;;;;;90.93;11.10;;;;;;;;;;4883501;29;20439;-48
2023/03/24 01:45:25;;;;;;;67.93;9.18;;;;;;;;;;4873240;29;20045;-49
2023/03/24 01:47:51;;;;;;;53.22;8.93;;;;;;;;;;4887684;29;20107;-47
2023/03/24 01:50:18;;;;;;;48.45;8.23;;;;;;;;;;4873623;29;20057;-48
2023/03/24 01:52:44;;;;;;;79.10;9.80;;;;;;;;;;4902929;29;20053;-47
2023/03/24 01:55:14;;;;;;;85.28;11.50;;;;;;;;;;4886950;29;20049;-49
2023/03/24 01:57:43;;;;;;;75.32;9.90;;;;;;;;;;4872741;29;20049;-48
2023/03/24 02:00:11;;;;;;;71.88;9.88;;;;;;;;;;4902793;29;20649;-47
2023/03/24 02:02:58;;;;;;;73.65;9.48;;;;;;;;;;4837815;29;1059954;-47
2023/03/24 02:05:30;;;;;;;63.13;8.82;;;;;;;;;;4887768;29;20519;-48
2023/03/24 02:08:00;;;;;;;47.38;8.23;;;;;;;;;;4892098;29;20052;-52
2023/03/24 02:10:29;;;;;;;85.72;10.48;;;;;;;;;;4891704;29;20056;-50
2023/03/24 02:12:56;;;;;;;69.28;10.10;;;;;;;;;;4877515;29;20045;-49
2023/03/24 02:15:24;;;;;;;105.45;11.88;;;;;;;;;;4890801;29;20121;-66
2023/03/24 02:17:55;;;;;;;75.53;9.82;;;;;;;;;;4877639;29;20041;-66
2023/03/24 02:20:46;;;;;;;50.80;8.50;;;;;;;;;;4892252;29;20132;-66
2023/03/24 02:23:26;;;;;;;70.07;9.52;;;;;;;;;;4857913;29;20418;-66
2023/03/24 02:26:07;;;;;;;50.80;8.68;;;;;;;;;;4840476;29;20101;-66
2023/03/24 02:28:38;;;;;;;70.68;9.30;;;;;;;;;;4845543;29;20076;-66
2023/03/24 02:31:09;;;;;;;76.50;9.60;;;;;;;;;;4855710;29;20046;-66
2023/03/24 02:33:47;;;;;;;85.65;10.23;;;;;;;;;;4855708;29;20053;-66
2023/03/24 02:36:22;;;;;;;51.42;8.52;;;;;;;;;;4855890;29;20053;-67
2023/03/24 02:38:52;;;;;;;66.20;9.32;;;;;;;;;;4854862;29;20363;-66
2023/03/24 02:41:37;;;;;;;78.05;10.68;;;;;;;;;;4856146;29;20061;-66
2023/03/24 02:44:15;;;;;;;61.50;8.80;;;;;;;;;;4841057;29;20061;-66
2023/03/24 02:46:46;;;;;;;59.15;8.82;;;;;;;;;;4855370;29;20041;-66
2023/03/24 02:49:25;;;;;;;64.57;9.88;;;;;;;;;;4855666;29;20053;-66
2023/03/24 02:52:05;;;;;;;67.22;10.63;;;;;;;;;;4852948;29;20063;-66
2023/03/24 02:54:45;;;;;;;79.47;10.93;;;;;;;;;;4855274;29;20090;-66
2023/03/24 02:57:26;;;;;;;84.88;12.18;;;;;;;;;;4855428;29;20049;-66
2023/03/24 03:00:31;;;;;;;58.55;10.45;;;;;;;;;;4862891;29;20482;-67
2023/03/24 03:03:27;;;;;;;60.38;10.10;;;;;;;;;;4876377;29;20064;-66
2023/03/24 03:06:00;;;;;;;69.90;10.27;;;;;;;;;;4891042;29;20044;-66
2023/03/24 03:08:29;;;;;;;74.68;10.85;;;;;;;;;;4907901;29;20056;-66
2023/03/24 03:10:57;;;;;;;61.33;10.00;;;;;;;;;;4891054;29;20108;-66
2023/03/24 03:13:35;;;;;;;67.13;10.82;;;;;;;;;;4890367;29;20050;-67
2023/03/24 03:16:12;;;;;;;59.97;10.77;;;;;;;;;;4905919;29;20052;-67
2023/03/24 03:18:42;;;;;;;58.65;10.80;;;;;;;;;;4875071;29;20521;-67
2023/03/24 03:21:11;;;;;;;63.85;11.00;;;;;;;;;;4889991;29;20629;-67
2023/03/24 03:23:45;;;;;;;104.25;13.85;;;;;;;;;;4904195;29;20048;-47
2023/03/24 03:26:15;;;;;;;82.25;11.90;;;;;;;;;;4876123;29;20041;-49
2023/03/24 03:28:48;;;;;;;72.68;10.80;;;;;;;;;;4873551;29;20109;-45
2023/03/24 03:31:20;;;;;;;66.60;11.40;;;;;;;;;;4876116;29;20059;-47
2023/03/24 03:33:54;;;;;;;81.28;11.30;;;;;;;;;;4890420;29;20527;-45
2023/03/24 03:36:23;;;;;;;73.15;10.88;;;;;;;;;;4902755;29;20071;-51
2023/03/24 03:38:56;;;;;;;89.90;12.70;;;;;;;;;;4876165;29;20045;-48
2023/03/24 03:41:23;;;;;;;68.10;11.48;;;;;;;;;;4890883;29;20140;-47
2023/03/24 03:43:50;;;;;;;59.05;10.13;;;;;;;;;;4905637;29;20145;-47
2023/03/24 03:46:17;;;;;;;94.45;12.07;;;;;;;;;;4906197;29;20093;-47
2023/03/24 03:48:45;;;;;;;64.60;11.35;;;;;;;;;;4890134;29;20771;-48
2023/03/24 03:51:12;;;;;;;95.13;14.05;;;;;;;;;;4890026;29;20041;-49
2023/03/24 03:53:51;;;;;;;100.60;13.43;;;;;;;;;;4890016;29;20057;-48
2023/03/24 03:56:19;;;;;;;77.03;10.93;;;;;;;;;;4891119;29;20077;-48
2023/03/24 03:58:57;;;;;;;104.85;13.93;;;;;;;;;;4890550;29;20045;-48
2023/03/24 04:01:26;;;;;;;74.05;12.63;;;;;;;;;;4875615;29;20037;-47
2023/03/24 04:04:32;;;;;;;49.13;9.45;;;;;;;;;;4887745;29;20049;-48
2023/03/24 04:07:32;;;;;;;71.28;11.75;;;;;;;;;;4905162;29;20209;-48
2023/03/24 04:10:24;;;;;;;63.13;11.68;;;;;;;;;;4889076;29;20052;-51
2023/03/24 04:13:02;;;;;;;63.72;11.35;;;;;;;;;;4887178;29;20131;-48
2023/03/24 04:15:54;;;;;;;90.65;13.55;;;;;;;;;;4872942;29;20067;-45
2023/03/24 04:18:51;;;;;;;76.47;11.00;;;;;;;;;;4874671;29;20068;-47
2023/03/24 04:21:37;;;;;;;94.70;13.27;;;;;;;;;;4874591;29;20049;-47
2023/03/24 04:24:04;;;;;;;105.38;14.25;;;;;;;;;;4888582;29;20073;-47
2023/03/24 04:26:33;;;;;;;79.22;13.05;;;;;;;;;;4904419;29;20049;-67
2023/03/24 04:29:11;;;;;;;76.28;12.10;;;;;;;;;;4886480;29;20049;-67
2023/03/24 04:31:40;;;;;;;66.45;12.45;;;;;;;;;;4873437;29;20056;-67
2023/03/24 04:34:15;;;;;;;73.13;12.32;;;;;;;;;;4904599;29;20045;-67
2023/03/24 04:36:41;;;;;;;118.18;14.93;;;;;;;;;;4869912;29;20583;-68
2023/03/24 04:39:26;;;;;;;86.82;12.70;;;;;;;;;;4874382;29;20045;-67
2023/03/24 04:41:56;;;;;;;86.30;12.68;;;;;;;;;;4889203;29;20049;-67
2023/03/24 04:44:25;;;;;;;65.88;11.07;;;;;;;;;;4905896;29;20592;-67
2023/03/24 04:47:23;;;;;;;107.93;13.68;;;;;;;;;;4881134;29;20048;-67
2023/03/24 04:50:29;;;;;;;65.13;10.82;;;;;;;;;;4879934;29;20068;-68
2023/03/24 04:52:58;;;;;;;63.25;11.75;;;;;;;;;;4886333;29;20227;-68
2023/03/24 04:55:50;;;;;;;69.38;10.65;;;;;;;;;;4868566;29;20078;-67
2023/03/24 04:58:28;;;;;;;66.28;12.02;;;;;;;;;;4893864;29;20105;-68
2023/03/24 05:00:55;;;;;;;105.63;13.82;;;;;;;;;;4864714;29;20064;-67
2023/03/24 05:03:22;;;;;;;64.88;11.57;;;;;;;;;;4882344;29;20096;-68
2023/03/24 05:05:49;;;;;;;114.95;15.35;;;;;;;;;;4880750;29;20053;-67
2023/03/24 05:08:16;;;;;;;99.57;13.60;;;;;;;;;;4881605;29;20201;-67
2023/03/24 05:10:43;;;;;;;87.28;13.02;;;;;;;;;;4897535;29;20120;-66
2023/03/24 05:13:10;;;;;;;63.67;11.95;;;;;;;;;;4859998;29;20053;-66
2023/03/24 05:15:43;;;;;;;;;;;;;;;;;;4885928;29;20096;-66
2023/03/24 05:18:27;;;;;;;59.72;10.60;;;;;;;;;;4881574;29;20288;-65
2023/03/24 05:20:55;;;;;;;90.75;16.27;;;;;;;;;;4897064;29;20403;-65
2023/03/24 05:23:22;;;;;;;60.25;12.13;;;;;;;;;;4900899;29;20044;-65
2023/03/24 05:25:49;;;;;;;79.93;12.00;;;;;;;;;;4904231;29;20524;-66
2023/03/24 05:28:17;;;;;;;89.10;13.50;;;;;;;;;;4886960;29;20077;-47
2023/03/24 05:30:44;;;;;;;56.45;9.70;;;;;;;;;;4888191;29;20053;-49
2023/03/24 05:33:21;;;;;;;68.43;11.00;;;;;;;;;;4884889;29;20049;-49
2023/03/24 05:35:47;;;;;;;99.10;12.38;;;;;;;;;;4887771;29;20053;-49
2023/03/24 05:38:14;;;;;;;72.55;11.35;;;;;;;;;;4875004;29;20045;-48
2023/03/24 05:40:46;;;;;;;73.90;11.85;;;;;;;;;;4887825;29;20045;-48
2023/03/24 05:43:13;;;;;;;60.13;10.75;;;;;;;;;;4888123;29;20041;-47
2023/03/24 05:45:45;;;;;;;75.82;13.45;;;;;;;;;;4884722;29;20052;-50
2023/03/24 05:48:23;;;;;;;72.20;12.43;;;;;;;;;;4888352;29;20044;-47
2023/03/24 05:51:10;;;;;;;69.72;10.57;;;;;;;;;;4885547;29;20053;-49
2023/03/24 05:53:37;;;;;;;92.88;12.48;;;;;;;;;;4887925;29;20056;-49
2023/03/24 05:56:12;;;;;;;78.35;11.20;;;;;;;;;;4904610;29;20045;-50
2023/03/24 05:58:58;;;;;;;60.25;11.05;;;;;;;;;;4874042;29;20549;-48
2023/03/24 06:01:47;;;;;;;53.33;10.38;;;;;;;;;;4872143;29;20061;-51
2023/03/24 06:04:22;;;;;;;57.80;10.00;;;;;;;;;;4903352;29;20073;-48
2023/03/24 06:06:54;;;;;;;61.92;9.35;;;;;;;;;;4884797;29;20049;-48
2023/03/24 06:09:28;;;;;;;;;;;;;;;;;;4888757;29;20334;-49
2023/03/24 06:11:55;;;;;;;73.80;10.00;;;;;;;;;;4887748;29;19928;-52
2023/03/24 06:14:23;;;;;;;64.25;10.07;;;;;;;;;;4904719;29;20063;-49
2023/03/24 06:16:59;;;;;;;45.78;8.65;;;;;;;;;;4872964;29;20514;-48
2023/03/24 06:19:26;;;;;;;80.50;11.35;;;;;;;;;;4887305;29;20140;-52
2023/03/24 06:22:05;;;;;;;48.67;9.20;;;;;;;;;;4903535;29;20085;-50
2023/03/24 06:24:36;;;;;;;55.58;9.82;;;;;;;;;;4887876;29;20105;-48
2023/03/24 06:27:07;;;;;;;85.35;11.38;;;;;;;;;;4903630;29;20434;-47
2023/03/24 06:29:35;;;;;;;78.25;11.45;;;;;;;;;;4872372;29;20059;-65
2023/03/24 06:32:02;;;;;;;88.68;12.02;;;;;;;;;;4903656;29;20077;-65
2023/03/24 06:34:31;;;;;;;88.55;13.25;;;;;;;;;;4903163;29;20045;-65
2023/03/24 06:37:11;;;;;;;72.18;11.52;;;;;;;;;;4900623;29;20132;-65
2023/03/24 06:39:39;;;;;;;71.10;12.40;;;;;;;;;;4887492;29;20065;-65
2023/03/24 06:42:06;;;;;;;62.55;11.10;;;;;;;;;;4903637;29;20048;-65
2023/03/24 06:44:32;;;;;;;72.88;11.07;;;;;;;;;;4888667;29;20037;-65
2023/03/24 06:46:59;;;;;;;53.95;10.60;;;;;;;;;;4887958;29;20100;-65
2023/03/24 06:49:26;;;;;;;77.93;11.43;;;;;;;;;;4887050;29;20044;-65
2023/03/24 06:51:53;;;;;;;62.40;11.75;;;;;;;;;;4874421;29;20367;-65
2023/03/24 06:54:21;;;;;;;70.93;11.27;;;;;;;;;;4887572;29;20144;-64
2023/03/24 06:56:47;;;;;;;80.85;12.38;;;;;;;;;;4891563;29;20052;-65
2023/03/24 06:59:16;;;;;;;88.35;13.80;;;;;;;;;;4891411;29;20041;-65
2023/03/24 07:01:43;;;;;;;71.88;12.07;;;;;;;;;;4876304;29;20419;-65
2023/03/24 07:04:18;;;;;;;73.35;11.85;;;;;;;;;;4891000;29;20048;-65
2023/03/24 07:06:53;;;;;;;85.07;12.85;;;;;;;;;;4887771;29;20049;-66
2023/03/24 07:09:42;;;;;;;68.07;11.40;;;;;;;;;;4868440;29;20113;-65
2023/03/24 07:12:10;;;;;;;55.17;10.82;;;;;;;;;;4890975;29;20117;-65
2023/03/24 07:14:40;;;;;;;75.75;11.90;;;;;;;;;;4876854;29;20152;-65
2023/03/24 07:17:06;;;;;;;75.75;11.65;;;;;;;;;;4905819;29;20513;-65
2023/03/24 07:19:58;;;;;;;73.93;12.25;;;;;;;;;;4890470;29;20407;-66
2023/03/24 07:22:30;;;;;;;74.18;12.35;;;;;;;;;;4875876;29;20479;-65
2023/03/24 07:25:19;;;;;;;81.32;13.07;;;;;;;;;;4877385;29;20053;-65
2023/03/24 07:27:53;;;;;;;71.88;12.45;;;;;;;;;;4889973;29;20053;-65
2023/03/24 07:30:20;;;;;;;75.90;12.38;;;;;;;;;;4890001;29;20532;-65
2023/03/24 07:33:00;;;;;;;80.88;12.65;;;;;;;;;;4890417;29;20136;-65
2023/03/24 07:35:27;;;;;;;88.75;13.43;;;;;;;;;;4906170;29;20419;-65
2023/03/24 07:38:00;;;;;;;69.60;11.52;;;;;;;;;;4876194;29;20056;-65
2023/03/24 07:40:27;;;;;;;50.67;10.82;;;;;;;;;;4887428;29;20698;-65
2023/03/24 07:42:53;;;;;;;72.72;12.82;;;;;;;;;;4875785;29;20048;-65
2023/03/24 07:45:33;;;;;;;82.65;13.50;;;;;;;;;;4889752;29;20049;-65
2023/03/24 07:48:01;;;;;;;70.00;12.32;;;;;;;;;;4889969;29;20049;-65
2023/03/24 07:50:31;;;;;;;78.82;13.52;;;;;;;;;;4888408;29;20045;-65
2023/03/24 07:53:01;;;;;;;80.63;12.32;;;;;;;;;;4890677;29;20041;-65
2023/03/24 07:55:28;;;;;;;80.60;11.88;;;;;;;;;;4889681;29;20041;-65
2023/03/24 07:58:14;;;;;;;78.63;12.68;;;;;;;;;;4875660;29;20060;-65
2023/03/24 08:00:57;;;;;;;80.07;12.30;;;;;;;;;;4871493;29;20056;-49
2023/03/24 08:03:34;;;;;;;66.35;11.23;;;;;;;;;;4888489;29;20406;-49
2023/03/24 08:06:09;;;;;;;71.95;11.60;;;;;;;;;;4890149;29;20045;-46
2023/03/24 08:08:41;;;;;;;98.38;13.00;;;;;;;;;;4872366;29;20565;-47
2023/03/24 08:11:08;;;;;;;70.38;11.70;;;;;;;;;;4875957;29;20535;-48
2023/03/24 08:13:35;;;;;;;71.20;12.10;;;;;;;;;;4874655;29;20053;-52
2023/03/24 08:16:02;;;;;;;65.18;11.95;;;;;;;;;;4874811;29;20157;-47
2023/03/24 08:18:31;;;;;;;68.38;12.98;;;;;;;;;;4874817;29;20448;-49
2023/03/24 08:20:58;;;;;;;91.93;15.18;;;;;;;;;;4874738;29;20052;-48
2023/03/24 08:23:24;;;;;;;93.13;15.15;;;;;;;;;;4877597;29;20037;-46
2023/03/24 08:25:51;;;;;;;63.63;12.05;;;;;;;;;;4874703;29;20045;-48
2023/03/24 08:28:17;;;;;;;61.88;13.73;;;;;;;;;;4874673;29;20105;-50
2023/03/24 08:30:44;;;;;;;83.57;13.80;;;;;;;;;;4874467;29;20049;-46
2023/03/24 08:33:12;;;;;;;84.45;17.33;;;;;;;;;;4875226;29;20048;-46
2023/03/24 08:35:39;;;;;;;75.45;15.95;;;;;;;;;;4874608;29;20080;-44
2023/03/24 08:38:07;;;;;;;60.83;10.85;;;;;;;;;;4875018;29;20514;-47
2023/03/24 08:40:34;;;;;;;66.63;11.43;;;;;;;;;;4874218;29;20067;-48
2023/03/24 08:43:02;;;;;;;42.65;9.07;;;;;;;;;;4875050;29;20064;-47
2023/03/24 08:45:30;;;;;;;73.55;11.43;;;;;;;;;;4874519;29;20420;-49
2023/03/24 08:47:58;;;;;;;69.65;11.57;;;;;;;;;;4874355;29;20426;-47
2023/03/24 08:50:26;;;;;;;47.55;9.73;;;;;;;;;;4875558;29;20045;-48
2023/03/24 08:52:54;;;;;;;65.05;10.30;;;;;;;;;;4874073;29;20824;-48
2023/03/24 08:55:22;;;;;;;104.68;13.25;;;;;;;;;;4873851;29;20041;-50
2023/03/24 08:57:49;;;;;;;84.80;12.52;;;;;;;;;;4873682;29;20068;-49
2023/03/24 09:00:17;;;;;;;86.53;11.75;;;;;;;;;;4874017;29;20120;-48
2023/03/24 09:02:53;;;;;;;143.57;15.27;;;;;;;;;;4873732;29;20091;-68
2023/03/24 09:05:21;;;;;;;83.05;11.43;;;;;;;;;;4873677;29;20503;-69
2023/03/24 09:08:02;;;;;;;69.63;11.18;;;;;;;;;;4874815;29;20523;-69
2023/03/24 09:10:29;;;;;;;38.00;9.48;;;;;;;;;;4874523;29;20097;-68
2023/03/24 09:12:55;;;;;;;79.63;12.40;;;;;;;;;;4874230;29;20056;-69
2023/03/24 09:15:22;;;;;;;78.95;12.52;;;;;;;;;;4873609;29;20508;-69
2023/03/24 09:17:48;;;;;;;66.70;11.60;;;;;;;;;;4874546;29;20045;-69
2023/03/24 09:20:15;;;;;;;82.35;12.48;;;;;;;;;;4874303;29;20077;-68
2023/03/24 09:22:43;;;;;;;70.35;11.48;;;;;;;;;;4873693;29;20045;-69
2023/03/24 09:25:10;;;;;;;61.30;12.77;;;;;;;;;;4872544;29;20049;-68
2023/03/24 09:27:37;;;;;;;68.40;11.73;;;;;;;;;;4873461;29;20041;-69
2023/03/24 09:30:03;;;;;;;71.85;12.73;;;;;;;;;;4874183;29;20067;-69
2023/03/24 09:32:30;;;;;;;41.20;10.35;;;;;;;;;;4875263;29;20055;-69
2023/03/24 09:34:56;;;;;;;63.80;10.77;;;;;;;;;;4872511;29;20523;-69
2023/03/24 09:37:23;;;;;;;76.65;12.48;;;;;;;;;;4873760;29;20533;-69
2023/03/24 09:39:50;;;;;;;53.97;10.73;;;;;;;;;;4873528;29;20045;-69
2023/03/24 09:42:21;;;;;;;85.18;12.77;;;;;;;;;;4873226;29;20037;-69
2023/03/24 09:44:52;;;;;;;95.43;13.15;;;;;;;;;;4888141;29;20045;-69
2023/03/24 09:47:22;;;;;;;50.38;11.10;;;;;;;;;;4888040;29;20053;-69
2023/03/24 09:49:49;;;;;;;57.03;10.98;;;;;;;;;;4871121;29;20056;-69
2023/03/24 09:52:20;;;;;;;61.22;10.63;;;;;;;;;;4873270;29;20124;-68
2023/03/24 09:54:46;;;;;;;51.13;9.80;;;;;;;;;;4873622;29;20052;-69
2023/03/24 09:57:28;;;;;;;75.88;11.35;;;;;;;;;;4872828;29;20069;-69
2023/03/24 09:59:54;;;;;;;63.75;10.32;;;;;;;;;;4872606;29;20041;-68
2023/03/24 10:02:21;;;;;;;71.82;10.52;;;;;;;;;;4874011;29;20045;-68
2023/03/24 10:04:48;;;;;;;86.18;11.50;;;;;;;;;;4872705;29;20049;-68
2023/03/24 10:07:21;;;;;;;43.78;9.32;;;;;;;;;;4873295;29;20037;-68
2023/03/24 10:09:52;;;;;;;44.97;8.55;;;;;;;;;;4887866;29;20045;-67
2023/03/24 10:12:38;;;;;;;69.20;9.82;;;;;;;;;;4873624;29;20061;-67
2023/03/24 10:15:26;;;;;;;67.35;10.90;;;;;;;;;;4873474;29;20049;-68
2023/03/24 10:18:11;;;;;;;69.13;10.05;;;;;;;;;;4873411;29;20573;-68
2023/03/24 10:20:41;;;;;;;71.90;10.02;;;;;;;;;;4870910;29;20052;-68
2023/03/24 10:23:22;;;;;;;70.93;10.63;;;;;;;;;;4873451;29;20067;-48
2023/03/24 10:26:04;;;;;;;73.47;11.85;;;;;;;;;;4869817;29;20041;-49
2023/03/24 10:28:42;;;;;;;53.03;10.90;;;;;;;;;;4873471;29;20041;-48
2023/03/24 10:31:10;;;;;;;73.28;10.60;;;;;;;;;;4873881;29;20049;-48
2023/03/24 10:33:38;;;;;;;40.50;9.13;;;;;;;;;;4877187;29;20041;-48
2023/03/24 10:36:16;;;;;;;84.03;11.68;;;;;;;;;;4876524;29;20127;-47
2023/03/24 10:38:44;;;;;;;51.00;9.82;;;;;;;;;;4877735;29;20053;-48
2023/03/24 10:41:20;;;;;;;66.45;10.73;;;;;;;;;;4876345;29;20161;-49
2023/03/24 10:43:49;;;;;;;60.70;10.77;;;;;;;;;;4877027;29;20052;-49
2023/03/24 10:46:16;;;;;;;31.25;8.18;;;;;;;;;;4876880;29;20043;-47
2023/03/24 10:48:43;;;;;;;59.00;10.95;;;;;;;;;;4876500;29;20041;-48
2023/03/24 10:51:15;;;;;;;75.45;11.25;;;;;;;;;;4876371;29;20045;-49
2023/03/24 10:53:46;;;;;;;93.18;12.65;;;;;;;;;;4876538;29;20763;-47
2023/03/24 10:56:36;;;;;;;44.25;8.13;;;;;;;;;;4877270;29;20117;-48
2023/03/24 10:59:14;;;;;;;62.08;9.07;;;;;;;;;;4869879;29;20278;-48
2023/03/24 11:01:41;;;;;;;68.28;9.52;;;;;;;;;;4876275;29;20409;-47
2023/03/24 11:04:11;;;;;;;44.13;7.78;;;;;;;;;;4872537;29;20133;-47
2023/03/24 11:06:51;;;;;;;58.13;8.90;;;;;;;;;;4876453;29;20127;-48
2023/03/24 11:09:21;;;;;;;59.17;8.95;;;;;;;;;;4875993;29;20059;-49
2023/03/24 11:11:49;;;;;;;74.20;9.52;;;;;;;;;;4906709;29;20136;-49
2023/03/24 11:14:24;;;;;;;58.38;8.60;;;;;;;;;;4876686;29;20101;-47
2023/03/24 11:16:51;;;;;;;57.20;9.23;;;;;;;;;;4875968;29;20045;-47
2023/03/24 11:19:19;;;;;;;60.40;9.90;;;;;;;;;;4875806;29;20418;-49
2023/03/24 11:21:49;;;;;;;49.90;8.23;;;;;;;;;;4875260;29;20041;-47
2023/03/24 11:24:17;;;;;;;71.38;10.73;;;;;;;;;;4872494;29;20491;-68
2023/03/24 11:26:57;;;;;;;59.92;9.75;;;;;;;;;;4875109;29;20045;-68
2023/03/24 11:29:26;;;;;;;38.97;7.63;;;;;;;;;;4875580;29;20407;-69
2023/03/24 11:31:55;;;;;;;45.30;8.77;;;;;;;;;;4876151;29;20048;-70
2023/03/24 11:34:23;;;;;;;65.97;10.13;;;;;;;;;;4872211;29;20049;-70
2023/03/24 11:36:53;;;;;;;51.70;9.05;;;;;;;;;;4875688;29;20060;-69
2023/03/24 11:39:22;;;;;;;58.15;9.48;;;;;;;;;;4875442;29;20045;-69
2023/03/24 11:41:50;;;;;;;46.28;8.45;;;;;;;;;;4876069;29;20041;-69
2023/03/24 11:44:22;;;;;;;54.92;8.57;;;;;;;;;;4876084;29;20593;-69
2023/03/24 11:46:57;;;;;;;64.97;9.40;;;;;;;;;;4875728;29;20144;-69
2023/03/24 11:49:29;;;;;;;57.90;9.73;;;;;;;;;;4875071;29;20049;-69
2023/03/24 11:51:55;;;;;;;53.22;9.65;;;;;;;;;;4875453;29;20045;-70
2023/03/24 11:54:26;;;;;;;45.60;7.85;;;;;;;;;;4875940;29;20131;-70
2023/03/24 11:56:56;;;;;;;67.30;9.73;;;;;;;;;;4873894;29;20088;-69
2023/03/24 11:59:32;;;;;;;66.90;9.88;;;;;;;;;;4875746;29;20522;-69
2023/03/24 12:02:09;;;;;;;47.97;8.48;;;;;;;;;;4875246;29;20052;-70
2023/03/24 12:04:54;;;;;;;72.05;10.63;;;;;;;;;;4901014;29;20049;-69
2023/03/24 12:07:40;;;;;;;56.08;9.30;;;;;;;;;;4875031;29;20036;-69
2023/03/24 12:10:06;;;;;;;68.80;9.98;;;;;;;;;;4873753;29;20044;-70
2023/03/24 12:12:33;;;;;;;60.22;9.82;;;;;;;;;;4875148;29;20506;-69
2023/03/24 12:14:59;;;;;;;94.03;11.82;;;;;;;;;;4873990;29;20045;-69
2023/03/24 12:17:31;;;;;;;96.20;11.85;;;;;;;;;;4875411;29;20045;-69
2023/03/24 12:20:15;;;;;;;82.03;10.20;;;;;;;;;;4873546;29;20049;-69
2023/03/24 12:22:53;;;;;;;79.25;11.40;;;;;;;;;;4874623;29;20052;-69
2023/03/24 12:25:29;;;;;;;120.50;13.82;;;;;;;;;;4873356;29;20482;-69
2023/03/24 12:28:11;;;;;;;62.78;10.02;;;;;;;;;;4874533;29;20049;-69
2023/03/24 12:30:47;;;;;;;93.15;12.00;;;;;;;;;;4871538;29;20041;-68
2023/03/24 12:33:23;;;;;;;90.15;11.50;;;;;;;;;;4873606;29;20049;-68
2023/03/24 12:36:08;;;;;;;85.65;12.15;;;;;;;;;;4871436;29;20045;-69
2023/03/24 12:38:46;;;;;;;41.70;9.95;;;;;;;;;;4875668;29;20526;-69
2023/03/24 12:41:18;;;;;;;67.40;10.13;;;;;;;;;;4875423;29;20060;-69
2023/03/24 12:43:45;;;;;;;68.70;10.63;;;;;;;;;;4874337;29;20458;-69
2023/03/24 12:46:17;;;;;;;38.28;7.80;;;;;;;;;;4874209;29;20127;-68
2023/03/24 12:48:44;;;;;;;49.90;7.93;;;;;;;;;;4871715;29;20081;-69
2023/03/24 12:51:13;;;;;;;43.67;7.95;;;;;;;;;;4873511;29;20116;-68
2023/03/24 12:53:54;;;;;;;74.95;9.68;;;;;;;;;;4872935;29;20083;-68
2023/03/24 12:56:21;;;;;;;67.82;8.90;;;;;;;;;;4872946;29;20499;-68
2023/03/24 12:58:48;;;;;;;38.85;6.65;;;;;;;;;;4874299;29;20564;-68
2023/03/24 13:01:15;;;;;;;62.65;7.93;;;;;;;;;;4873904;29;20036;-68
2023/03/24 13:03:46;;;;;;;67.28;8.82;;;;;;;;;;4873695;29;20060;-68
2023/03/24 13:06:18;;;;;;;43.67;7.90;;;;;;;;;;4871960;29;20053;-67
2023/03/24 13:08:51;;;;;;;46.58;7.35;;;;;;;;;;4873897;29;20057;-68
2023/03/24 13:11:19;;;;;;;42.80;6.60;;;;;;;;;;4874963;29;20048;-67
2023/03/24 13:14:00;;;;;;;50.05;8.73;;;;;;;;;;4874455;29;20354;-67
2023/03/24 13:16:28;;;;;;;39.60;7.28;;;;;;;;;;4873951;29;20037;-67
2023/03/24 13:18:58;;;;;;;56.67;7.97;;;;;;;;;;4870477;29;20049;-67
2023/03/24 13:21:27;;;;;;;85.10;8.68;;;;;;;;;;4872972;29;20120;-68
2023/03/24 13:24:02;;;;;;;64.55;7.88;;;;;;;;;;4877860;29;20537;-67
2023/03/24 13:26:35;;;;;;;65.68;7.88;;;;;;;;;;4875064;29;20049;-67
2023/03/24 13:29:01;;;;;;;48.63;6.88;;;;;;;;;;4873136;29;20231;-67
2023/03/24 13:31:54;;;;;;;91.07;9.10;;;;;;;;;;4872304;29;20041;-67
2023/03/24 13:34:25;;;;;;;44.90;5.93;;;;;;;;;;4852327;29;20067;-67
2023/03/24 13:36:55;;;;;;;55.97;6.47;;;;;;;;;;4852209;29;20065;-67
2023/03/24 13:39:24;;;;;;;73.85;7.63;;;;;;;;;;4852651;29;20129;-67
2023/03/24 13:41:51;;;;;;;48.10;6.55;;;;;;;;;;4852991;29;20053;-67
2023/03/24 13:44:22;;;;;;;52.33;6.47;;;;;;;;;;4852566;29;20049;-67
2023/03/24 13:47:04;;;;;;;57.05;6.35;;;;;;;;;;4852113;29;20053;-67
2023/03/24 13:49:31;;;;;;;79.30;8.55;;;;;;;;;;4851384;29;20125;-67
2023/03/24 13:52:00;;;;;;;77.65;7.72;;;;;;;;;;4848450;29;20065;-62
2023/03/24 13:54:27;;;;;;;55.28;6.15;;;;;;;;;;4844795;29;20503;-65
2023/03/24 13:57:03;;;;;;;104.82;9.18;;;;;;;;;;4851271;29;20415;-64
2023/03/24 13:59:29;;;;;;;76.38;7.63;;;;;;;;;;4852560;29;20065;-64
2023/03/24 14:02:15;;;;;;;54.33;5.68;;;;;;;;;;4853089;29;20206;-61
2023/03/24 14:05:07;;;;;;;61.35;6.50;;;;;;;;;;4856524;29;20065;-64
2023/03/24 14:07:39;;;;;;;92.35;8.20;;;;;;;;;;4849293;29;20445;-63
2023/03/24 14:10:12;;;;;;;63.07;6.73;;;;;;;;;;4855810;29;20050;-65
2023/03/24 14:12:51;;;;;;;54.20;6.97;;;;;;;;;;4873795;29;20148;-62
2023/03/24 14:15:24;;;;;;;73.35;6.90;;;;;;;;;;4889522;29;20165;-63
2023/03/24 14:17:55;;;;;;;78.50;6.70;;;;;;;;;;4873960;29;20367;-64
2023/03/24 14:20:27;;;;;;;61.88;6.55;;;;;;;;;;4877473;29;20474;-64
2023/03/24 14:22:53;;;;;;;18.40;3.72;;;;;;;;;;4878304;29;20045;-64
2023/03/24 14:25:25;;;;;;;63.75;6.78;;;;;;;;;;4891501;29;20048;-64
2023/03/24 14:28:11;;;;;;;68.10;6.90;;;;;;;;;;4874886;29;20041;-64
2023/03/24 14:30:53;;;;;;;54.78;5.93;;;;;;;;;;4875168;29;20302;-64
2023/03/24 14:33:24;;;;;;;64.22;6.38;;;;;;;;;;4873598;29;20073;-64
2023/03/24 14:35:56;;;;;;;105.75;9.57;;;;;;;;;;4875910;29;20033;-64
2023/03/24 14:38:25;;;;;;;67.78;6.20;;;;;;;;;;4876866;29;20045;-64
2023/03/24 14:40:55;;;;;;;61.15;6.28;;;;;;;;;;4873555;29;20077;-64
2023/03/24 14:43:21;;;;;;;71.72;7.35;;;;;;;;;;4875388;29;20051;-64
2023/03/24 14:45:51;;;;;;;78.00;7.22;;;;;;;;;;4874598;29;20048;-65
2023/03/24 14:48:24;;;;;;;55.97;6.32;;;;;;;;;;4876297;29;20121;-64
2023/03/24 14:50:52;;;;;;;90.47;8.02;;;;;;;;;;4876118;29;20052;-64
2023/03/24 14:53:19;;;;;;;42.05;5.63;;;;;;;;;;4876801;29;20057;-64